sensor_id;sensor_type;location;lat;lon;timestamp;pressure;altitude;pressure_sealevel;temperature;humidity
20628;BME280;10473;42.734;24.258;2024-03-06T00:02:23;91913.09;;;3.64;84.16
20628;BME280;10473;42.734;24.258;2024-03-06T00:04:49;91904.28;;;3.43;84.84
20628;BME280;10473;42.734;24.258;2024-03-06T00:07:15;91901.22;;;3.17;85.22
20628;BME280;10473;42.734;24.258;2024-03-06T00:09:41;91910.53;;;3.41;85.10
20628;BME280;10473;42.734;24.258;2024-03-06T00:12:06;91895.44;;;3.54;85.40
20628;BME280;10473;42.734;24.258;2024-03-06T00:14:32;91905.44;;;3.64;84.15
20628;BME280;10473;42.734;24.258;2024-03-06T00:16:58;91913.22;;;3.70;84.67
20628;BME280;10473;42.734;24.258;2024-03-06T00:19:23;91916.41;;;3.49;84.94
20628;BME280;10473;42.734;24.258;2024-03-06T00:21:52;91913.53;;;3.44;86.28
20628;BME280;10473;42.734;24.258;2024-03-06T00:24:17;91911.06;;;3.59;85.62
20628;BME280;10473;42.734;24.258;2024-03-06T00:26:46;91920.84;;;3.79;84.94
20628;BME280;10473;42.734;24.258;2024-03-06T00:29:12;91916.31;;;3.89;85.21
20628;BME280;10473;42.734;24.258;2024-03-06T00:31:47;91913.69;;;3.97;84.25
20628;BME280;10473;42.734;24.258;2024-03-06T00:34:13;91921.38;;;3.97;83.31
20628;BME280;10473;42.734;24.258;2024-03-06T00:36:42;91923.00;;;4.13;84.18
20628;BME280;10473;42.734;24.258;2024-03-06T00:39:09;91917.03;;;4.21;83.49
20628;BME280;10473;42.734;24.258;2024-03-06T00:41:48;91914.13;;;4.24;82.75
20628;BME280;10473;42.734;24.258;2024-03-06T00:44:17;91918.91;;;4.42;82.17
20628;BME280;10473;42.734;24.258;2024-03-06T00:46:43;91916.88;;;4.37;81.97
20628;BME280;10473;42.734;24.258;2024-03-06T00:49:08;91910.59;;;4.40;82.43
20628;BME280;10473;42.734;24.258;2024-03-06T00:51:34;91914.25;;;4.45;81.95
20628;BME280;10473;42.734;24.258;2024-03-06T00:54:02;91914.72;;;4.49;81.27
20628;BME280;10473;42.734;24.258;2024-03-06T00:56:28;91903.84;;;4.47;80.76
20628;BME280;10473;42.734;24.258;2024-03-06T00:58:54;91919.47;;;4.52;81.49
20628;BME280;10473;42.734;24.258;2024-03-06T01:01:19;91919.50;;;4.67;80.99
20628;BME280;10473;42.734;24.258;2024-03-06T01:03:45;91918.66;;;4.37;81.56
20628;BME280;10473;42.734;24.258;2024-03-06T01:06:13;91921.41;;;4.12;83.03
20628;BME280;10473;42.734;24.258;2024-03-06T01:08:39;91921.16;;;4.22;82.74
20628;BME280;10473;42.734;24.258;2024-03-06T01:11:04;91918.34;;;4.31;82.35
20628;BME280;10473;42.734;24.258;2024-03-06T01:13:34;91916.00;;;4.30;81.25
20628;BME280;10473;42.734;24.258;2024-03-06T01:15:59;91920.94;;;4.46;81.09
20628;BME280;10473;42.734;24.258;2024-03-06T01:18:29;91924.97;;;4.26;80.17
20628;BME280;10473;42.734;24.258;2024-03-06T01:20:55;91923.84;;;4.28;80.07
20628;BME280;10473;42.734;24.258;2024-03-06T01:23:22;91923.50;;;4.46;78.63
20628;BME280;10473;42.734;24.258;2024-03-06T01:25:47;91923.66;;;4.30;78.16
20628;BME280;10473;42.734;24.258;2024-03-06T01:28:13;91926.91;;;4.24;78.71
20628;BME280;10473;42.734;24.258;2024-03-06T01:30:38;91928.09;;;4.51;78.13
20628;BME280;10473;42.734;24.258;2024-03-06T01:33:04;91925.78;;;4.26;78.68
20628;BME280;10473;42.734;24.258;2024-03-06T01:35:30;91926.13;;;4.23;78.64
20628;BME280;10473;42.734;24.258;2024-03-06T01:37:56;91920.91;;;4.17;78.36
20628;BME280;10473;42.734;24.258;2024-03-06T01:40:23;91918.19;;;3.95;78.55
20628;BME280;10473;42.734;24.258;2024-03-06T01:42:49;91924.78;;;3.89;79.85
20628;BME280;10473;42.734;24.258;2024-03-06T01:45:15;91910.97;;;3.76;80.25
20628;BME280;10473;42.734;24.258;2024-03-06T01:47:40;91925.13;;;3.86;79.57
20628;BME280;10473;42.734;24.258;2024-03-06T01:50:07;91929.59;;;4.07;77.28
20628;BME280;10473;42.734;24.258;2024-03-06T01:52:35;91928.34;;;3.80;78.68
20628;BME280;10473;42.734;24.258;2024-03-06T01:55:05;91925.34;;;3.77;79.28
20628;BME280;10473;42.734;24.258;2024-03-06T01:57:33;91925.41;;;3.91;78.13
20628;BME280;10473;42.734;24.258;2024-03-06T02:00:00;91927.69;;;3.86;79.18
20628;BME280;10473;42.734;24.258;2024-03-06T02:02:26;91936.88;;;4.19;77.09
20628;BME280;10473;42.734;24.258;2024-03-06T02:04:53;91944.91;;;3.93;79.03
20628;BME280;10473;42.734;24.258;2024-03-06T02:07:20;91929.84;;;3.98;78.35
20628;BME280;10473;42.734;24.258;2024-03-06T02:09:48;91941.50;;;4.00;78.23
20628;BME280;10473;42.734;24.258;2024-03-06T02:12:14;91930.25;;;3.55;79.44
20628;BME280;10473;42.734;24.258;2024-03-06T02:14:41;91937.84;;;3.72;79.42
20628;BME280;10473;42.734;24.258;2024-03-06T02:17:07;91937.06;;;3.71;78.68
20628;BME280;10473;42.734;24.258;2024-03-06T02:19:42;91941.97;;;3.73;78.70
20628;BME280;10473;42.734;24.258;2024-03-06T02:22:09;91933.63;;;3.79;79.15
20628;BME280;10473;42.734;24.258;2024-03-06T02:24:36;91930.34;;;3.70;78.70
20628;BME280;10473;42.734;24.258;2024-03-06T02:27:03;91931.50;;;3.90;76.18
20628;BME280;10473;42.734;24.258;2024-03-06T02:29:31;91942.91;;;3.48;77.56
20628;BME280;10473;42.734;24.258;2024-03-06T02:31:58;91933.75;;;3.62;77.23
20628;BME280;10473;42.734;24.258;2024-03-06T02:34:23;91938.91;;;3.54;76.83
20628;BME280;10473;42.734;24.258;2024-03-06T02:36:51;91946.69;;;3.61;77.48
20628;BME280;10473;42.734;24.258;2024-03-06T02:39:17;91938.41;;;3.59;77.44
20628;BME280;10473;42.734;24.258;2024-03-06T02:41:43;91946.34;;;3.41;77.28
20628;BME280;10473;42.734;24.258;2024-03-06T02:44:08;91936.38;;;3.46;77.19
20628;BME280;10473;42.734;24.258;2024-03-06T02:46:34;91945.47;;;3.48;77.46
20628;BME280;10473;42.734;24.258;2024-03-06T02:49:00;91947.09;;;3.49;76.60
20628;BME280;10473;42.734;24.258;2024-03-06T02:51:25;91937.97;;;3.47;76.57
20628;BME280;10473;42.734;24.258;2024-03-06T02:53:51;91945.56;;;3.32;77.52
20628;BME280;10473;42.734;24.258;2024-03-06T02:56:19;91941.88;;;3.35;77.21
20628;BME280;10473;42.734;24.258;2024-03-06T02:58:45;91952.72;;;3.45;76.20
20628;BME280;10473;42.734;24.258;2024-03-06T03:01:11;91945.69;;;3.39;77.12
20628;BME280;10473;42.734;24.258;2024-03-06T03:03:41;91944.06;;;3.46;76.24
20628;BME280;10473;42.734;24.258;2024-03-06T03:06:12;91935.06;;;3.19;77.54
20628;BME280;10473;42.734;24.258;2024-03-06T03:08:41;91948.69;;;3.42;76.11
20628;BME280;10473;42.734;24.258;2024-03-06T03:11:07;91944.97;;;3.22;77.75
20628;BME280;10473;42.734;24.258;2024-03-06T03:13:35;91948.78;;;3.26;77.32
20628;BME280;10473;42.734;24.258;2024-03-06T03:16:00;91945.06;;;3.37;77.18
20628;BME280;10473;42.734;24.258;2024-03-06T03:18:32;91944.53;;;3.10;78.27
20628;BME280;10473;42.734;24.258;2024-03-06T03:20:58;91949.22;;;3.29;77.35
20628;BME280;10473;42.734;24.258;2024-03-06T03:23:27;91948.97;;;3.16;77.75
20628;BME280;10473;42.734;24.258;2024-03-06T03:25:54;91959.66;;;3.20;78.32
20628;BME280;10473;42.734;24.258;2024-03-06T03:28:20;91963.13;;;3.35;77.67
20628;BME280;10473;42.734;24.258;2024-03-06T03:30:45;91947.25;;;3.08;78.09
20628;BME280;10473;42.734;24.258;2024-03-06T03:33:11;91965.53;;;3.37;77.75
20628;BME280;10473;42.734;24.258;2024-03-06T03:35:37;91953.88;;;3.34;77.49
20628;BME280;10473;42.734;24.258;2024-03-06T03:38:03;91966.84;;;3.24;78.32
20628;BME280;10473;42.734;24.258;2024-03-06T03:40:28;91963.19;;;3.19;78.25
20628;BME280;10473;42.734;24.258;2024-03-06T03:42:54;91964.38;;;3.08;78.02
20628;BME280;10473;42.734;24.258;2024-03-06T03:45:19;91974.53;;;3.16;77.96
20628;BME280;10473;42.734;24.258;2024-03-06T03:47:45;91968.78;;;3.14;78.37
20628;BME280;10473;42.734;24.258;2024-03-06T03:50:11;91962.50;;;2.85;78.31
20628;BME280;10473;42.734;24.258;2024-03-06T03:52:36;91980.91;;;2.56;79.62
20628;BME280;10473;42.734;24.258;2024-03-06T03:55:07;91978.84;;;2.43;80.52
20628;BME280;10473;42.734;24.258;2024-03-06T03:57:32;91986.03;;;2.48;80.16
20628;BME280;10473;42.734;24.258;2024-03-06T03:59:58;91992.09;;;2.22;82.38
20628;BME280;10473;42.734;24.258;2024-03-06T04:02:23;91991.94;;;2.32;81.96
20628;BME280;10473;42.734;24.258;2024-03-06T04:04:49;91990.63;;;2.36;82.21
20628;BME280;10473;42.734;24.258;2024-03-06T04:07:14;91991.13;;;2.32;82.54
20628;BME280;10473;42.734;24.258;2024-03-06T04:09:44;91994.47;;;2.40;81.98
20628;BME280;10473;42.734;24.258;2024-03-06T04:12:10;91992.91;;;2.47;82.44
20628;BME280;10473;42.734;24.258;2024-03-06T04:14:35;91997.66;;;2.67;81.61
20628;BME280;10473;42.734;24.258;2024-03-06T04:17:01;91994.31;;;2.58;81.46
20628;BME280;10473;42.734;24.258;2024-03-06T04:19:29;91983.28;;;2.74;80.87
20628;BME280;10473;42.734;24.258;2024-03-06T04:21:54;91996.69;;;2.60;81.45
20628;BME280;10473;42.734;24.258;2024-03-06T04:24:20;91989.22;;;2.42;82.08
20628;BME280;10473;42.734;24.258;2024-03-06T04:26:45;91997.34;;;2.37;82.75
20628;BME280;10473;42.734;24.258;2024-03-06T04:29:11;91994.50;;;2.32;83.71
20628;BME280;10473;42.734;24.258;2024-03-06T04:31:36;91998.00;;;2.07;85.16
20628;BME280;10473;42.734;24.258;2024-03-06T04:34:02;92001.81;;;2.27;85.60
20628;BME280;10473;42.734;24.258;2024-03-06T04:36:27;92000.84;;;2.53;83.70
20628;BME280;10473;42.734;24.258;2024-03-06T04:38:53;91998.94;;;2.46;83.50
20628;BME280;10473;42.734;24.258;2024-03-06T04:41:19;92005.63;;;2.56;81.70
20628;BME280;10473;42.734;24.258;2024-03-06T04:43:45;92008.38;;;2.46;82.48
20628;BME280;10473;42.734;24.258;2024-03-06T04:46:13;92009.63;;;2.42;82.75
20628;BME280;10473;42.734;24.258;2024-03-06T04:48:41;92001.66;;;2.45;82.11
20628;BME280;10473;42.734;24.258;2024-03-06T04:51:07;92004.53;;;2.42;82.21
20628;BME280;10473;42.734;24.258;2024-03-06T04:53:33;92003.41;;;2.53;82.80
20628;BME280;10473;42.734;24.258;2024-03-06T04:55:58;91997.19;;;2.47;83.18
20628;BME280;10473;42.734;24.258;2024-03-06T04:58:24;91996.06;;;2.58;82.79
20628;BME280;10473;42.734;24.258;2024-03-06T05:00:50;91994.63;;;2.47;82.69
20628;BME280;10473;42.734;24.258;2024-03-06T05:03:15;91997.34;;;2.62;80.65
20628;BME280;10473;42.734;24.258;2024-03-06T05:05:49;91994.97;;;2.44;79.71
20628;BME280;10473;42.734;24.258;2024-03-06T05:08:15;92006.75;;;2.61;79.71
20628;BME280;10473;42.734;24.258;2024-03-06T05:10:40;92008.53;;;2.61;78.41
20628;BME280;10473;42.734;24.258;2024-03-06T05:13:06;92005.44;;;2.82;77.78
20628;BME280;10473;42.734;24.258;2024-03-06T05:15:32;92014.72;;;2.83;77.05
20628;BME280;10473;42.734;24.258;2024-03-06T05:17:58;92020.66;;;2.67;78.26
20628;BME280;10473;42.734;24.258;2024-03-06T05:20:24;92023.81;;;2.77;77.85
20628;BME280;10473;42.734;24.258;2024-03-06T05:22:49;92007.06;;;2.66;77.54
20628;BME280;10473;42.734;24.258;2024-03-06T05:25:15;92006.75;;;2.53;77.33
20628;BME280;10473;42.734;24.258;2024-03-06T05:27:40;92029.28;;;2.50;78.02
20628;BME280;10473;42.734;24.258;2024-03-06T05:30:06;92016.81;;;2.71;77.98
20628;BME280;10473;42.734;24.258;2024-03-06T05:32:33;92011.19;;;2.84;76.99
20628;BME280;10473;42.734;24.258;2024-03-06T05:34:59;92022.50;;;2.98;76.04
20628;BME280;10473;42.734;24.258;2024-03-06T05:37:25;92021.72;;;2.89;76.41
20628;BME280;10473;42.734;24.258;2024-03-06T05:39:50;92028.75;;;2.95;77.19
20628;BME280;10473;42.734;24.258;2024-03-06T05:42:16;92028.56;;;3.13;76.76
20628;BME280;10473;42.734;24.258;2024-03-06T05:44:41;92020.50;;;3.41;76.42
20628;BME280;10473;42.734;24.258;2024-03-06T05:47:07;92019.59;;;3.65;75.25
20628;BME280;10473;42.734;24.258;2024-03-06T05:49:32;92031.94;;;3.93;74.01
20628;BME280;10473;42.734;24.258;2024-03-06T05:51:58;92025.78;;;4.25;72.56
20628;BME280;10473;42.734;24.258;2024-03-06T05:54:24;92030.28;;;4.23;73.60
20628;BME280;10473;42.734;24.258;2024-03-06T05:56:50;92044.91;;;4.14;74.91
20628;BME280;10473;42.734;24.258;2024-03-06T05:59:18;92038.56;;;4.10;74.31
20628;BME280;10473;42.734;24.258;2024-03-06T06:01:46;92039.69;;;4.53;74.46
20628;BME280;10473;42.734;24.258;2024-03-06T06:04:13;92032.75;;;5.15;71.53
20628;BME280;10473;42.734;24.258;2024-03-06T06:06:39;92031.88;;;5.38;71.05
20628;BME280;10473;42.734;24.258;2024-03-06T06:09:05;92042.69;;;5.48;71.90
20628;BME280;10473;42.734;24.258;2024-03-06T06:11:34;92041.00;;;5.55;70.17
20628;BME280;10473;42.734;24.258;2024-03-06T06:14:00;92046.41;;;5.45;69.82
20628;BME280;10473;42.734;24.258;2024-03-06T06:16:25;92044.41;;;5.03;72.21
20628;BME280;10473;42.734;24.258;2024-03-06T06:18:51;92050.78;;;5.07;71.62
20628;BME280;10473;42.734;24.258;2024-03-06T06:21:17;92044.25;;;4.66;72.84
20628;BME280;10473;42.734;24.258;2024-03-06T06:23:44;92044.91;;;4.83;72.38
20628;BME280;10473;42.734;24.258;2024-03-06T06:26:09;92039.72;;;5.06;71.55
20628;BME280;10473;42.734;24.258;2024-03-06T06:28:36;92030.13;;;5.23;70.94
20628;BME280;10473;42.734;24.258;2024-03-06T06:31:03;92042.09;;;4.93;72.71
20628;BME280;10473;42.734;24.258;2024-03-06T06:33:29;92040.69;;;4.90;73.08
20628;BME280;10473;42.734;24.258;2024-03-06T06:35:55;92052.13;;;5.18;72.22
20628;BME280;10473;42.734;24.258;2024-03-06T06:38:21;92039.06;;;5.42;71.51
20628;BME280;10473;42.734;24.258;2024-03-06T06:40:46;92047.84;;;4.95;73.14
20628;BME280;10473;42.734;24.258;2024-03-06T06:43:13;92040.69;;;4.90;73.30
20628;BME280;10473;42.734;24.258;2024-03-06T06:45:38;92048.53;;;4.89;72.86
20628;BME280;10473;42.734;24.258;2024-03-06T06:48:04;92041.97;;;5.39;72.73
20628;BME280;10473;42.734;24.258;2024-03-06T06:50:30;92048.41;;;5.35;72.52
20628;BME280;10473;42.734;24.258;2024-03-06T06:52:58;92053.53;;;5.20;71.53
20628;BME280;10473;42.734;24.258;2024-03-06T06:55:24;92046.28;;;5.24;72.87
20628;BME280;10473;42.734;24.258;2024-03-06T06:57:50;92054.56;;;5.49;73.60
20628;BME280;10473;42.734;24.258;2024-03-06T07:00:16;92054.81;;;5.69;72.29
20628;BME280;10473;42.734;24.258;2024-03-06T07:02:44;92062.03;;;5.80;73.68
20628;BME280;10473;42.734;24.258;2024-03-06T07:05:10;92056.66;;;5.60;73.26
20628;BME280;10473;42.734;24.258;2024-03-06T07:07:37;92066.16;;;5.07;75.75
20628;BME280;10473;42.734;24.258;2024-03-06T07:10:04;92067.69;;;4.78;77.21
20628;BME280;10473;42.734;24.258;2024-03-06T07:12:30;92073.56;;;4.41;77.46
20628;BME280;10473;42.734;24.258;2024-03-06T07:14:56;92073.00;;;4.30;78.16
20628;BME280;10473;42.734;24.258;2024-03-06T07:17:22;92083.22;;;4.77;76.58
20628;BME280;10473;42.734;24.258;2024-03-06T07:19:47;92091.75;;;4.23;78.76
20628;BME280;10473;42.734;24.258;2024-03-06T07:22:13;92078.47;;;3.88;80.08
20628;BME280;10473;42.734;24.258;2024-03-06T07:24:38;92085.44;;;3.71;81.26
20628;BME280;10473;42.734;24.258;2024-03-06T07:27:06;92072.91;;;3.84;82.16
20628;BME280;10473;42.734;24.258;2024-03-06T07:29:34;92089.88;;;4.17;80.90
20628;BME280;10473;42.734;24.258;2024-03-06T07:32:01;92084.41;;;4.20;80.08
20628;BME280;10473;42.734;24.258;2024-03-06T07:34:26;92075.16;;;4.65;79.11
20628;BME280;10473;42.734;24.258;2024-03-06T07:36:52;92071.91;;;4.71;78.55
20628;BME280;10473;42.734;24.258;2024-03-06T07:39:21;92083.03;;;4.40;79.34
20628;BME280;10473;42.734;24.258;2024-03-06T07:41:47;92074.38;;;4.41;79.85
20628;BME280;10473;42.734;24.258;2024-03-06T07:44:12;92083.56;;;4.50;79.71
20628;BME280;10473;42.734;24.258;2024-03-06T07:46:39;92078.34;;;4.44;80.71
20628;BME280;10473;42.734;24.258;2024-03-06T07:49:04;92080.91;;;4.67;79.79
20628;BME280;10473;42.734;24.258;2024-03-06T07:51:33;92082.81;;;4.88;78.53
20628;BME280;10473;42.734;24.258;2024-03-06T07:53:59;92072.94;;;4.39;80.27
20628;BME280;10473;42.734;24.258;2024-03-06T07:56:26;92082.44;;;4.30;81.30
20628;BME280;10473;42.734;24.258;2024-03-06T07:58:52;92075.16;;;4.42;79.70
20628;BME280;10473;42.734;24.258;2024-03-06T08:01:19;92077.66;;;4.73;79.78
20628;BME280;10473;42.734;24.258;2024-03-06T08:03:46;92065.78;;;5.48;78.09
20628;BME280;10473;42.734;24.258;2024-03-06T08:06:12;92073.81;;;6.04;75.48
20628;BME280;10473;42.734;24.258;2024-03-06T08:08:41;92060.94;;;6.55;74.37
20628;BME280;10473;42.734;24.258;2024-03-06T08:11:07;92058.91;;;7.22;70.98
20628;BME280;10473;42.734;24.258;2024-03-06T08:13:35;92062.56;;;7.34;70.21
20628;BME280;10473;42.734;24.258;2024-03-06T08:16:01;92055.00;;;7.96;70.04
20628;BME280;10473;42.734;24.258;2024-03-06T08:18:27;92058.38;;;8.64;66.85
20628;BME280;10473;42.734;24.258;2024-03-06T08:20:52;92048.84;;;8.58;65.34
20628;BME280;10473;42.734;24.258;2024-03-06T08:23:18;92048.72;;;9.20;63.00
20628;BME280;10473;42.734;24.258;2024-03-06T08:25:43;92054.88;;;8.86;62.73
20628;BME280;10473;42.734;24.258;2024-03-06T08:28:09;92052.50;;;9.31;62.71
20628;BME280;10473;42.734;24.258;2024-03-06T08:30:35;92050.09;;;9.42;63.22
20628;BME280;10473;42.734;24.258;2024-03-06T08:33:00;92048.91;;;9.05;61.51
20628;BME280;10473;42.734;24.258;2024-03-06T08:35:26;92046.13;;;9.40;60.49
20628;BME280;10473;42.734;24.258;2024-03-06T08:37:52;92058.97;;;9.80;58.55
20628;BME280;10473;42.734;24.258;2024-03-06T08:40:17;92059.63;;;9.29;60.06
20628;BME280;10473;42.734;24.258;2024-03-06T08:42:43;92063.78;;;9.70;59.81
20628;BME280;10473;42.734;24.258;2024-03-06T08:45:09;92049.53;;;9.14;61.44
20628;BME280;10473;42.734;24.258;2024-03-06T08:47:36;92049.41;;;9.87;60.37
20628;BME280;10473;42.734;24.258;2024-03-06T08:50:02;92060.19;;;10.36;59.66
20628;BME280;10473;42.734;24.258;2024-03-06T08:52:28;92058.47;;;9.04;60.88
20628;BME280;10473;42.734;24.258;2024-03-06T08:54:54;92043.75;;;9.12;59.64
20628;BME280;10473;42.734;24.258;2024-03-06T08:57:19;92061.03;;;9.38;56.86
20628;BME280;10473;42.734;24.258;2024-03-06T08:59:47;92055.66;;;10.31;55.23
20628;BME280;10473;42.734;24.258;2024-03-06T09:02:15;92051.44;;;9.72;55.20
20628;BME280;10473;42.734;24.258;2024-03-06T09:04:43;92060.03;;;9.45;58.33
20628;BME280;10473;42.734;24.258;2024-03-06T09:07:09;92054.94;;;9.97;58.31
20628;BME280;10473;42.734;24.258;2024-03-06T09:09:35;92044.84;;;10.79;55.49
20628;BME280;10473;42.734;24.258;2024-03-06T09:12:04;92045.69;;;11.30;56.45
20628;BME280;10473;42.734;24.258;2024-03-06T09:14:33;92046.44;;;11.05;54.44
20628;BME280;10473;42.734;24.258;2024-03-06T09:16:59;92031.31;;;11.09;56.18
20628;BME280;10473;42.734;24.258;2024-03-06T09:19:25;92047.59;;;11.60;53.99
20628;BME280;10473;42.734;24.258;2024-03-06T09:21:51;92047.91;;;10.18;56.96
20628;BME280;10473;42.734;24.258;2024-03-06T09:24:16;92055.81;;;10.75;54.50
20628;BME280;10473;42.734;24.258;2024-03-06T09:26:44;92048.72;;;10.95;53.52
20628;BME280;10473;42.734;24.258;2024-03-06T09:29:10;92046.28;;;11.25;54.37
20628;BME280;10473;42.734;24.258;2024-03-06T09:31:36;92042.53;;;11.46;52.14
20628;BME280;10473;42.734;24.258;2024-03-06T09:34:02;92050.78;;;11.12;51.35
20628;BME280;10473;42.734;24.258;2024-03-06T09:36:28;92046.94;;;10.12;54.11
20628;BME280;10473;42.734;24.258;2024-03-06T09:38:54;92031.88;;;11.36;51.54
20628;BME280;10473;42.734;24.258;2024-03-06T09:41:21;92036.50;;;11.52;49.02
20628;BME280;10473;42.734;24.258;2024-03-06T09:43:47;92045.59;;;10.86;50.74
20628;BME280;10473;42.734;24.258;2024-03-06T09:46:13;92043.09;;;9.76;54.34
20628;BME280;10473;42.734;24.258;2024-03-06T09:48:46;92051.81;;;9.75;55.99
20628;BME280;10473;42.734;24.258;2024-03-06T09:51:12;92050.50;;;9.33;57.74
20628;BME280;10473;42.734;24.258;2024-03-06T09:53:38;92048.19;;;9.96;55.95
20628;BME280;10473;42.734;24.258;2024-03-06T09:56:05;92054.94;;;9.91;55.37
20628;BME280;10473;42.734;24.258;2024-03-06T09:58:31;92051.78;;;9.88;55.55
20628;BME280;10473;42.734;24.258;2024-03-06T10:00:59;92047.13;;;10.17;55.56
20628;BME280;10473;42.734;24.258;2024-03-06T10:03:26;92042.97;;;10.10;56.21
20628;BME280;10473;42.734;24.258;2024-03-06T10:05:52;92029.00;;;10.62;54.43
20628;BME280;10473;42.734;24.258;2024-03-06T10:08:19;92041.56;;;11.22;52.34
20628;BME280;10473;42.734;24.258;2024-03-06T10:10:50;92033.81;;;11.84;51.72
20628;BME280;10473;42.734;24.258;2024-03-06T10:13:23;92026.09;;;11.59;49.71
20628;BME280;10473;42.734;24.258;2024-03-06T10:16:01;92035.63;;;11.40;51.77
20628;BME280;10473;42.734;24.258;2024-03-06T10:18:28;92033.94;;;11.27;50.70
20628;BME280;10473;42.734;24.258;2024-03-06T10:23:46;92011.28;;;10.98;50.14
20628;BME280;10473;42.734;24.258;2024-03-06T10:26:12;92020.66;;;10.92;49.28
20628;BME280;10473;42.734;24.258;2024-03-06T10:28:44;92014.22;;;11.51;48.46
20628;BME280;10473;42.734;24.258;2024-03-06T10:31:10;92020.59;;;11.92;46.33
20628;BME280;10473;42.734;24.258;2024-03-06T10:33:36;92003.59;;;12.15;47.66
20628;BME280;10473;42.734;24.258;2024-03-06T10:36:03;91998.88;;;11.68;48.27
20628;BME280;10473;42.734;24.258;2024-03-06T10:38:30;91969.38;;;11.33;49.05
20628;BME280;10473;42.734;24.258;2024-03-06T10:41:00;91997.97;;;10.94;48.53
20628;BME280;10473;42.734;24.258;2024-03-06T10:43:26;92006.47;;;11.01;48.92
20628;BME280;10473;42.734;24.258;2024-03-06T10:46:06;92001.25;;;11.70;44.91
20628;BME280;10473;42.734;24.258;2024-03-06T10:48:33;92004.56;;;11.59;46.58
20628;BME280;10473;42.734;24.258;2024-03-06T10:51:00;91991.50;;;11.03;46.33
20628;BME280;10473;42.734;24.258;2024-03-06T10:53:28;91999.06;;;11.05;48.61
20628;BME280;10473;42.734;24.258;2024-03-06T10:55:56;91994.41;;;11.14;49.29
20628;BME280;10473;42.734;24.258;2024-03-06T10:58:23;91992.06;;;12.11;47.15
20628;BME280;10473;42.734;24.258;2024-03-06T11:00:50;91984.13;;;12.66;46.24
20628;BME280;10473;42.734;24.258;2024-03-06T11:03:16;91977.97;;;13.45;44.32
20628;BME280;10473;42.734;24.258;2024-03-06T11:05:44;91982.78;;;13.88;43.50
20628;BME280;10473;42.734;24.258;2024-03-06T11:08:13;91970.13;;;13.21;39.10
20628;BME280;10473;42.734;24.258;2024-03-06T11:10:41;91968.22;;;13.64;39.62
20628;BME280;10473;42.734;24.258;2024-03-06T11:15:48;91964.63;;;13.41;39.53
20628;BME280;10473;42.734;24.258;2024-03-06T11:23:27;91961.09;;;12.88;38.02
20628;BME280;10473;42.734;24.258;2024-03-06T11:28:23;91967.78;;;12.54;40.36
20628;BME280;10473;42.734;24.258;2024-03-06T11:31:08;91965.13;;;11.75;44.07
20628;BME280;10473;42.734;24.258;2024-03-06T11:33:44;91962.78;;;11.92;43.13
20628;BME280;10473;42.734;24.258;2024-03-06T11:39:05;91959.41;;;11.91;44.83
20628;BME280;10473;42.734;24.258;2024-03-06T11:44:07;91949.72;;;11.43;44.10
20628;BME280;10473;42.734;24.258;2024-03-06T11:46:57;91961.84;;;11.49;43.46
20628;BME280;10473;42.734;24.258;2024-03-06T11:49:24;91957.44;;;11.50;44.72
20628;BME280;10473;42.734;24.258;2024-03-06T11:51:55;91954.25;;;11.48;43.07
20628;BME280;10473;42.734;24.258;2024-03-06T11:54:22;91929.66;;;11.39;42.58
20628;BME280;10473;42.734;24.258;2024-03-06T11:56:50;91946.56;;;11.41;43.44
20628;BME280;10473;42.734;24.258;2024-03-06T11:59:21;91941.81;;;11.38;42.82
20628;BME280;10473;42.734;24.258;2024-03-06T12:01:47;91939.66;;;11.54;44.06
20628;BME280;10473;42.734;24.258;2024-03-06T12:04:13;91939.94;;;12.01;43.07
20628;BME280;10473;42.734;24.258;2024-03-06T12:06:38;91935.13;;;12.04;42.40
20628;BME280;10473;42.734;24.258;2024-03-06T12:09:04;91941.00;;;12.11;41.50
20628;BME280;10473;42.734;24.258;2024-03-06T12:11:29;91940.69;;;12.20;42.69
20628;BME280;10473;42.734;24.258;2024-03-06T12:13:56;91942.81;;;12.53;40.33
20628;BME280;10473;42.734;24.258;2024-03-06T12:16:22;91944.78;;;12.27;42.42
20628;BME280;10473;42.734;24.258;2024-03-06T12:18:55;91942.03;;;11.92;42.80
20628;BME280;10473;42.734;24.258;2024-03-06T12:21:35;91934.19;;;11.80;42.94
20628;BME280;10473;42.734;24.258;2024-03-06T12:24:08;91936.41;;;11.77;42.66
20628;BME280;10473;42.734;24.258;2024-03-06T12:26:39;91930.59;;;11.44;44.96
20628;BME280;10473;42.734;24.258;2024-03-06T12:29:12;91937.91;;;11.29;44.52
20628;BME280;10473;42.734;24.258;2024-03-06T12:31:38;91928.47;;;10.73;44.73
20628;BME280;10473;42.734;24.258;2024-03-06T12:34:13;91931.00;;;11.04;45.32
20628;BME280;10473;42.734;24.258;2024-03-06T12:36:40;91928.41;;;11.23;43.86
20628;BME280;10473;42.734;24.258;2024-03-06T12:39:06;91932.59;;;11.42;44.63
20628;BME280;10473;42.734;24.258;2024-03-06T12:41:41;91928.22;;;11.43;44.25
20628;BME280;10473;42.734;24.258;2024-03-06T12:44:09;91921.16;;;11.68;43.15
20628;BME280;10473;42.734;24.258;2024-03-06T12:46:35;91911.13;;;11.90;43.07
20628;BME280;10473;42.734;24.258;2024-03-06T12:49:01;91922.09;;;11.92;42.80
20628;BME280;10473;42.734;24.258;2024-03-06T12:51:27;91925.22;;;12.13;42.96
20628;BME280;10473;42.734;24.258;2024-03-06T12:53:55;91925.50;;;12.23;41.86
20628;BME280;10473;42.734;24.258;2024-03-06T12:56:21;91916.44;;;12.56;41.22
20628;BME280;10473;42.734;24.258;2024-03-06T12:58:46;91921.66;;;13.03;41.44
20628;BME280;10473;42.734;24.258;2024-03-06T13:01:12;91918.78;;;13.47;40.43
20628;BME280;10473;42.734;24.258;2024-03-06T13:03:38;91924.28;;;13.62;39.60
20628;BME280;10473;42.734;24.258;2024-03-06T13:06:04;91927.09;;;13.61;39.35
20628;BME280;10473;42.734;24.258;2024-03-06T13:08:30;91921.81;;;13.96;38.31
20628;BME280;10473;42.734;24.258;2024-03-06T13:10:56;91915.94;;;13.60;38.59
20628;BME280;10473;42.734;24.258;2024-03-06T13:13:22;91911.41;;;13.20;39.72
20628;BME280;10473;42.734;24.258;2024-03-06T13:15:52;91915.81;;;12.96;41.50